Time;durP1;ratioP1;P1;durP2;ratioP2;P2;SDS_P1;SDS_P2;PMS_P1;PMS_P2;Temp;Humidity;BMP_temperature;BMP_pressure;BME280_temperature;BME280_humidity;BME280_pressure;Samples;Min_cycle;Max_cycle;Signal;HPM_P1;HPM_P2
2023/08/20 00:00:36;;;;;;;8.00;7.20;;;22.30;99.90;;;;;;5006871;28;20183;-32
2023/08/20 00:03:11;;;;;;;8.60;7.70;;;22.30;99.90;;;;;;4990627;28;20182;-30
2023/08/20 00:05:38;;;;;;;8.07;7.28;;;22.30;99.90;;;;;;4990208;28;20253;-32
2023/08/20 00:08:04;;;;;;;8.52;7.05;;;22.30;99.90;;;;;;4990230;28;20226;-31
2023/08/20 00:10:31;;;;;;;7.95;7.15;;;22.20;99.90;;;;;;4990535;28;20215;-30
2023/08/20 00:12:57;;;;;;;8.90;8.00;;;22.20;99.90;;;;;;4987091;28;20187;-31
2023/08/20 00:15:26;;;;;;;8.27;7.55;;;22.20;99.90;;;;;;4985914;28;20194;-31
2023/08/20 00:17:54;;;;;;;8.80;7.93;;;22.20;99.90;;;;;;4989300;28;20717;-30
2023/08/20 00:20:21;;;;;;;8.90;7.70;;;22.20;99.90;;;;;;4990203;28;20184;-30
2023/08/20 00:22:48;;;;;;;8.52;7.72;;;22.20;99.90;;;;;;4989735;28;20184;-31
2023/08/20 00:25:15;;;;;;;8.32;7.53;;;22.20;99.90;;;;;;4972008;28;20192;-30
2023/08/20 00:27:42;;;;;;;8.18;7.43;;;22.10;99.90;;;;;;4987418;28;20258;-31
2023/08/20 00:30:10;;;;;;;9.88;7.53;;;22.10;99.90;;;;;;4986870;28;20212;-31
2023/08/20 00:32:36;;;;;;;8.68;7.40;;;22.10;99.90;;;;;;5003398;28;20234;-31
2023/08/20 00:35:03;;;;;;;11.45;7.63;;;22.00;99.90;;;;;;4982167;28;20191;-30
2023/08/20 00:37:30;;;;;;;8.80;7.97;;;22.00;99.90;;;;;;4973583;28;20295;-30
2023/08/20 00:39:57;;;;;;;8.95;8.05;;;22.00;99.90;;;;;;4986577;28;20204;-32
2023/08/20 00:42:25;;;;;;;8.65;7.47;;;22.00;99.90;;;;;;4984834;28;20192;-30
2023/08/20 00:44:51;;;;;;;11.73;8.23;;;22.00;99.90;;;;;;4973918;28;20183;-30
2023/08/20 00:47:18;;;;;;;10.55;8.23;;;22.00;99.90;;;;;;4991025;28;20195;-31
2023/08/20 00:49:44;;;;;;;9.43;8.23;;;22.00;99.90;;;;;;4987877;28;20219;-30
2023/08/20 00:52:12;;;;;;;10.23;8.90;;;21.90;99.90;;;;;;4973893;28;20238;-30
2023/08/20 00:54:40;;;;;;;9.80;8.70;;;21.90;99.90;;;;;;4989639;28;20196;-30
2023/08/20 00:57:08;;;;;;;10.70;9.02;;;21.80;99.90;;;;;;5005955;28;20308;-30
2023/08/20 00:59:34;;;;;;;9.70;8.70;;;21.90;99.90;;;;;;4986368;28;20235;-31
2023/08/20 01:02:01;;;;;;;9.35;8.43;;;21.90;99.90;;;;;;5022505;28;20184;-30
2023/08/20 01:04:29;;;;;;;9.60;8.70;;;21.90;99.90;;;;;;4985918;28;20185;-29
2023/08/20 01:07:03;;;;;;;10.90;8.80;;;21.80;99.90;;;;;;4988705;28;20210;-30
2023/08/20 01:09:37;;;;;;;9.40;8.02;;;21.80;99.90;;;;;;4976135;28;20258;-30
2023/08/20 01:12:06;;;;;;;9.98;8.38;;;21.70;99.90;;;;;;4990100;28;20241;-31
2023/08/20 01:14:32;;;;;;;9.55;8.27;;;21.70;99.90;;;;;;4984589;28;20180;-32
2023/08/20 01:16:59;;;;;;;8.85;8.05;;;21.60;99.90;;;;;;5000621;28;20199;-30
2023/08/20 01:19:25;;;;;;;10.35;8.55;;;21.60;99.90;;;;;;4993439;28;20194;-30
2023/08/20 01:22:03;;;;;;;9.15;8.25;;;21.60;99.90;;;;;;4991678;28;20251;-30
2023/08/20 01:24:55;;;;;;;10.15;9.15;;;21.50;99.90;;;;;;4956690;28;20200;-30
2023/08/20 01:28:02;;;;;;;10.63;8.60;;;21.50;99.90;;;;;;4981082;28;20211;-30
2023/08/20 01:30:30;;;;;;;10.75;9.18;;;21.50;99.90;;;;;;4890533;29;20305;-30
2023/08/20 01:32:57;;;;;;;9.35;7.93;;;21.40;99.90;;;;;;4972228;28;20199;-31
2023/08/20 01:35:26;;;;;;;9.27;8.30;;;21.40;99.90;;;;;;4993133;28;20196;-30
2023/08/20 01:38:01;;;;;;;10.43;8.63;;;21.40;99.90;;;;;;4992581;28;20204;-31
2023/08/20 01:40:29;;;;;;;9.70;8.70;;;21.30;99.90;;;;;;4989675;28;20181;-30
2023/08/20 01:42:55;;;;;;;10.98;8.95;;;21.30;99.90;;;;;;4999605;28;20242;-30
2023/08/20 01:45:21;;;;;;;10.32;8.18;;;21.30;99.90;;;;;;4989565;28;20180;-30
2023/08/20 01:47:48;;;;;;;8.30;7.50;;;21.30;99.90;;;;;;4990395;28;20200;-30
2023/08/20 01:50:14;;;;;;;9.32;8.00;;;21.30;99.90;;;;;;4989613;28;20212;-30
2023/08/20 01:52:40;;;;;;;10.00;8.02;;;21.20;99.90;;;;;;5005756;28;20186;-31
2023/08/20 01:55:06;;;;;;;10.20;8.10;;;21.20;99.90;;;;;;4993951;28;20365;-30
2023/08/20 01:57:33;;;;;;;11.27;8.18;;;21.20;99.90;;;;;;4992141;28;20313;-30
2023/08/20 01:59:59;;;;;;;9.43;8.40;;;21.20;99.90;;;;;;4992651;28;20196;-30
2023/08/20 02:02:25;;;;;;;9.13;8.23;;;21.10;99.90;;;;;;4986692;28;20247;-30
2023/08/20 02:04:51;;;;;;;9.25;8.18;;;21.10;99.90;;;;;;4972432;28;20193;-30
2023/08/20 02:07:17;;;;;;;9.60;8.60;;;21.10;99.90;;;;;;5003681;28;20204;-31
2023/08/20 02:09:42;;;;;;;10.23;9.30;;;21.10;99.90;;;;;;4989349;28;20219;-30
2023/08/20 02:12:08;;;;;;;11.13;8.93;;;21.00;99.90;;;;;;4992689;28;20274;-30
2023/08/20 02:14:35;;;;;;;11.15;8.50;;;21.00;99.90;;;;;;5008632;28;20192;-31
2023/08/20 02:17:01;;;;;;;9.23;8.32;;;21.00;99.90;;;;;;4970676;28;20205;-30
2023/08/20 02:19:27;;;;;;;8.95;8.15;;;20.90;99.90;;;;;;4937190;29;20200;-30
2023/08/20 02:21:53;;;;;;;11.63;8.82;;;20.90;99.90;;;;;;4937003;28;20184;-30
2023/08/20 02:24:19;;;;;;;12.93;8.48;;;20.80;99.90;;;;;;4972871;28;20215;-30
2023/08/20 02:26:46;;;;;;;9.50;8.18;;;20.90;99.90;;;;;;4969687;28;20185;-30
2023/08/20 02:29:12;;;;;;;9.63;8.65;;;20.80;99.90;;;;;;4949155;28;20208;-30
2023/08/20 02:31:38;;;;;;;9.35;8.35;;;20.80;99.90;;;;;;4972754;28;20204;-30
2023/08/20 02:34:04;;;;;;;10.55;9.50;;;20.80;99.90;;;;;;4972820;28;20228;-31
2023/08/20 02:36:29;;;;;;;10.15;9.20;;;20.80;99.90;;;;;;4950731;28;20177;-31
2023/08/20 02:38:55;;;;;;;10.00;8.95;;;20.70;99.90;;;;;;4956484;28;20212;-30
2023/08/20 02:41:21;;;;;;;10.05;9.00;;;20.80;99.90;;;;;;4950324;28;20181;-30
2023/08/20 02:43:48;;;;;;;16.02;9.40;;;20.80;99.90;;;;;;4956055;28;20184;-30
2023/08/20 02:46:14;;;;;;;11.18;9.05;;;20.80;99.90;;;;;;4963546;28;20259;-30
2023/08/20 02:48:40;;;;;;;9.68;8.77;;;20.80;99.90;;;;;;4952415;28;20212;-31
2023/08/20 02:51:06;;;;;;;9.90;8.98;;;20.80;99.90;;;;;;4964145;28;20181;-30
2023/08/20 02:53:32;;;;;;;11.18;9.80;;;20.80;99.90;;;;;;4940019;28;20208;-29
2023/08/20 02:55:58;;;;;;;12.38;9.48;;;20.80;99.90;;;;;;4954434;28;20177;-30
2023/08/20 02:58:25;;;;;;;12.20;9.63;;;20.80;99.90;;;;;;4952674;29;20200;-32
2023/08/20 03:00:51;;;;;;;11.70;9.68;;;20.80;99.90;;;;;;4965834;28;20177;-29
2023/08/20 03:03:17;;;;;;;9.63;8.63;;;20.80;99.90;;;;;;4943526;28;20180;-30
2023/08/20 03:05:43;;;;;;;10.20;9.20;;;20.80;99.90;;;;;;4959721;28;20208;-30
2023/08/20 03:08:09;;;;;;;12.40;9.30;;;20.80;99.90;;;;;;4939394;28;20204;-30
2023/08/20 03:10:35;;;;;;;9.63;8.63;;;20.80;99.90;;;;;;4951195;28;20204;-29
2023/08/20 03:13:02;;;;;;;10.23;9.07;;;20.70;99.90;;;;;;4955545;28;20181;-30
2023/08/20 03:15:29;;;;;;;13.70;9.75;;;20.70;99.90;;;;;;4965952;28;20181;-30
2023/08/20 03:17:54;;;;;;;10.60;9.60;;;20.70;99.90;;;;;;4969223;28;20219;-31
2023/08/20 03:20:20;;;;;;;9.75;8.75;;;20.70;99.90;;;;;;4994361;28;20175;-30
2023/08/20 03:22:46;;;;;;;11.02;9.63;;;20.60;99.90;;;;;;4974965;28;20180;-32
2023/08/20 03:25:12;;;;;;;10.07;8.75;;;20.70;99.90;;;;;;4955644;28;20183;-29
2023/08/20 03:27:38;;;;;;;9.48;8.57;;;20.70;99.90;;;;;;4966974;28;20208;-30
2023/08/20 03:30:04;;;;;;;10.27;9.00;;;20.70;99.90;;;;;;4973102;28;20298;-30
2023/08/20 03:32:31;;;;;;;10.60;9.50;;;20.80;99.90;;;;;;4984659;28;20179;-30
2023/08/20 03:34:59;;;;;;;10.32;9.25;;;20.70;99.90;;;;;;5021036;28;20180;-30
2023/08/20 03:37:25;;;;;;;9.80;8.90;;;20.70;99.90;;;;;;4990204;28;20196;-29
2023/08/20 03:39:52;;;;;;;11.48;8.68;;;20.60;99.90;;;;;;4990204;28;20222;-30
2023/08/20 03:42:18;;;;;;;10.68;8.75;;;20.60;99.90;;;;;;4989525;28;20744;-30
2023/08/20 03:44:43;;;;;;;9.48;8.57;;;20.60;99.90;;;;;;4990161;28;20250;-30
2023/08/20 03:47:09;;;;;;;10.55;9.45;;;20.50;99.90;;;;;;4973772;28;20227;-30
2023/08/20 03:49:35;;;;;;;10.55;9.45;;;20.50;99.90;;;;;;4989942;28;20294;-30
2023/08/20 03:52:02;;;;;;;12.93;9.90;;;20.40;99.90;;;;;;4990543;28;20180;-30
2023/08/20 03:54:29;;;;;;;11.23;9.27;;;20.40;99.90;;;;;;4993872;28;20184;-30
2023/08/20 03:56:56;;;;;;;9.88;8.88;;;20.40;99.90;;;;;;4971984;28;20203;-30
2023/08/20 03:59:23;;;;;;;12.75;9.70;;;20.40;99.90;;;;;;4990372;28;20188;-30
2023/08/20 04:01:49;;;;;;;10.00;9.10;;;20.40;99.90;;;;;;4990390;28;20186;-30
2023/08/20 04:04:14;;;;;;;10.73;9.73;;;20.30;99.90;;;;;;4982648;28;20179;-30
2023/08/20 04:06:41;;;;;;;12.00;10.02;;;20.30;99.90;;;;;;4974227;28;20227;-30
2023/08/20 04:09:09;;;;;;;16.30;9.57;;;20.20;99.90;;;;;;4973311;28;20774;-30
2023/08/20 04:11:35;;;;;;;14.43;9.55;;;20.10;99.90;;;;;;4990108;28;20172;-29
2023/08/20 04:14:01;;;;;;;10.23;9.13;;;20.10;99.90;;;;;;4989850;28;20235;-30
2023/08/20 04:16:29;;;;;;;10.88;9.05;;;20.10;99.90;;;;;;4982213;28;20207;-30
2023/08/20 04:18:56;;;;;;;10.40;9.35;;;20.10;99.90;;;;;;5003462;23;20243;-31
2023/08/20 04:21:22;;;;;;;13.85;9.23;;;20.20;99.90;;;;;;4974952;28;20176;-30
2023/08/20 04:23:49;;;;;;;10.45;9.43;;;20.20;99.90;;;;;;4990397;28;20183;-30
2023/08/20 04:26:14;;;;;;;11.15;10.00;;;20.10;99.90;;;;;;4990174;28;20180;-30
2023/08/20 04:28:40;;;;;;;10.75;9.00;;;20.10;99.90;;;;;;4967541;28;20223;-30
2023/08/20 04:31:06;;;;;;;9.73;8.77;;;20.20;99.90;;;;;;4962777;28;20182;-30
2023/08/20 04:33:46;;;;;;;10.20;9.20;;;20.20;99.90;;;;;;4963071;28;20200;-30
2023/08/20 04:36:15;;;;;;;11.95;9.70;;;20.20;99.90;;;;;;4986116;28;20177;-30
2023/08/20 04:38:42;;;;;;;9.73;8.80;;;20.20;99.90;;;;;;4970552;28;20196;-30
2023/08/20 04:41:08;;;;;;;10.18;9.07;;;20.20;99.90;;;;;;4970663;28;20199;-30
2023/08/20 04:43:34;;;;;;;9.63;8.57;;;20.20;99.90;;;;;;4987566;28;20252;-30
2023/08/20 04:46:01;;;;;;;10.73;9.38;;;20.20;99.90;;;;;;4976547;28;20184;-30
2023/08/20 04:48:28;;;;;;;12.02;9.50;;;20.20;99.90;;;;;;4974073;28;20231;-30
2023/08/20 04:50:55;;;;;;;11.98;9.73;;;20.20;99.90;;;;;;4973589;28;20244;-30
2023/08/20 04:53:21;;;;;;;10.48;9.48;;;20.20;99.90;;;;;;4974542;28;20176;-30
2023/08/20 04:55:48;;;;;;;12.57;9.68;;;20.20;99.90;;;;;;4974095;28;20177;-30
2023/08/20 04:58:13;;;;;;;12.07;10.85;;;20.20;99.90;;;;;;4974071;28;20201;-30
2023/08/20 05:00:39;;;;;;;11.45;10.27;;;20.10;99.90;;;;;;4969225;28;20268;-31
2023/08/20 05:03:09;;;;;;;13.63;10.90;;;20.10;99.90;;;;;;4947217;28;20185;-31
2023/08/20 05:05:35;;;;;;;10.55;9.45;;;20.20;99.90;;;;;;4982524;28;20187;-30
2023/08/20 05:08:01;;;;;;;11.57;10.48;;;20.30;99.90;;;;;;4975308;28;20721;-30
2023/08/20 05:10:27;;;;;;;11.60;10.50;;;20.40;99.90;;;;;;4973796;28;20293;-30
2023/08/20 05:12:53;;;;;;;11.65;9.35;;;20.40;99.90;;;;;;4974317;28;20181;-30
2023/08/20 05:15:18;;;;;;;11.35;10.25;;;20.40;99.90;;;;;;4981953;28;20209;-31
2023/08/20 05:17:44;;;;;;;11.10;9.82;;;20.40;99.90;;;;;;4987025;28;20208;-31
2023/08/20 05:20:11;;;;;;;11.05;10.05;;;20.40;99.90;;;;;;4977245;28;20195;-30
2023/08/20 05:22:36;;;;;;;10.93;9.90;;;20.60;99.90;;;;;;4961054;28;20187;-30
2023/08/20 05:25:03;;;;;;;11.27;9.77;;;20.60;99.90;;;;;;4993111;28;20191;-31
2023/08/20 05:27:31;;;;;;;11.05;9.95;;;20.60;99.90;;;;;;4988118;28;20188;-31
2023/08/20 05:29:57;;;;;;;12.48;10.10;;;20.60;99.90;;;;;;4957731;28;20292;-30
2023/08/20 05:32:23;;;;;;;11.95;10.05;;;20.70;99.90;;;;;;4961484;28;20271;-30
2023/08/20 05:34:49;;;;;;;10.63;9.63;;;20.70;99.90;;;;;;4960812;28;20204;-31
2023/08/20 05:37:14;;;;;;;11.30;10.10;;;20.80;99.90;;;;;;4974227;28;20239;-31
2023/08/20 05:39:42;;;;;;;10.93;9.82;;;20.90;99.90;;;;;;4973487;28;20204;-31
2023/08/20 05:42:09;;;;;;;15.73;10.35;;;20.90;99.90;;;;;;4973525;28;20223;-31
2023/08/20 05:44:36;;;;;;;11.35;10.20;;;21.00;99.90;;;;;;4957650;28;20230;-31
2023/08/20 05:47:03;;;;;;;11.55;10.07;;;21.10;99.90;;;;;;4973412;28;20185;-31
2023/08/20 05:49:30;;;;;;;10.88;9.82;;;21.10;99.90;;;;;;4981025;28;20204;-30
2023/08/20 05:51:56;;;;;;;11.65;9.95;;;21.20;99.90;;;;;;4981343;28;20179;-30
2023/08/20 05:54:22;;;;;;;11.48;10.35;;;21.20;99.90;;;;;;4956872;28;20188;-30
2023/08/20 05:56:51;;;;;;;11.13;9.25;;;21.30;99.90;;;;;;4965109;28;20227;-31
2023/08/20 05:59:17;;;;;;;10.82;9.82;;;21.30;99.90;;;;;;4957024;28;20272;-30
2023/08/20 06:01:43;;;;;;;11.20;10.00;;;21.40;99.90;;;;;;4964964;28;20231;-31
2023/08/20 06:04:09;;;;;;;13.25;10.20;;;21.40;99.90;;;;;;4981264;28;20199;-30
2023/08/20 06:06:35;;;;;;;12.32;10.23;;;21.60;99.90;;;;;;4969025;28;20195;-31
2023/08/20 06:09:01;;;;;;;10.13;9.23;;;21.50;99.90;;;;;;4977240;28;20205;-31
2023/08/20 06:11:27;;;;;;;10.45;9.43;;;21.60;99.90;;;;;;4973025;28;20177;-31
2023/08/20 06:13:53;;;;;;;11.40;10.27;;;21.70;99.90;;;;;;4973134;28;20268;-31
2023/08/20 06:16:18;;;;;;;10.55;9.50;;;21.80;99.90;;;;;;4967223;28;20185;-30
2023/08/20 06:18:44;;;;;;;10.95;9.88;;;22.00;99.90;;;;;;4978068;28;20208;-31
2023/08/20 06:21:10;;;;;;;12.38;10.07;;;22.10;99.90;;;;;;4979119;28;20673;-31
2023/08/20 06:23:36;;;;;;;11.70;9.60;;;22.20;99.90;;;;;;4966382;28;20270;-31
2023/08/20 06:26:01;;;;;;;10.63;9.70;;;22.30;99.90;;;;;;4972514;28;20176;-32
2023/08/20 06:28:28;;;;;;;12.60;9.80;;;22.40;99.90;;;;;;4980642;28;20196;-31
2023/08/20 06:30:53;;;;;;;10.30;9.27;;;22.50;99.90;;;;;;4972500;28;20200;-31
2023/08/20 06:33:19;;;;;;;10.45;9.43;;;22.70;99.90;;;;;;4972575;28;20203;-31
2023/08/20 06:35:45;;;;;;;10.68;9.77;;;22.90;99.90;;;;;;4977973;28;20177;-31
2023/08/20 06:38:11;;;;;;;10.38;9.38;;;22.90;99.90;;;;;;4972645;28;20212;-31
2023/08/20 06:40:37;;;;;;;10.48;9.48;;;23.00;99.90;;;;;;4970723;28;20254;-31
2023/08/20 06:43:03;;;;;;;10.20;9.20;;;23.00;99.90;;;;;;4977864;28;20180;-31
2023/08/20 06:45:31;;;;;;;10.35;9.35;;;23.00;99.90;;;;;;4988297;28;20212;-31
2023/08/20 06:47:57;;;;;;;10.57;9.57;;;23.20;99.90;;;;;;4987998;28;20239;-32
2023/08/20 06:50:23;;;;;;;11.77;10.10;;;23.30;99.90;;;;;;4972629;28;20208;-31
2023/08/20 06:52:49;;;;;;;10.57;9.40;;;23.50;99.90;;;;;;4980348;28;20201;-31
2023/08/20 06:55:15;;;;;;;11.20;8.98;;;23.60;99.90;;;;;;4985691;28;20255;-31
2023/08/20 06:57:41;;;;;;;10.18;9.23;;;23.70;99.90;;;;;;4986380;28;20181;-31
2023/08/20 07:00:07;;;;;;;10.95;9.75;;;23.80;99.90;;;;;;4963848;28;20220;-31
2023/08/20 07:02:33;;;;;;;10.05;8.85;;;23.80;99.90;;;;;;4972913;28;20280;-31
2023/08/20 07:04:58;;;;;;;10.38;9.38;;;23.80;99.90;;;;;;4959319;28;20556;-31
2023/08/20 07:07:24;;;;;;;10.20;9.10;;;23.90;99.90;;;;;;4947559;28;20188;-32
2023/08/20 07:09:50;;;;;;;11.15;10.00;;;24.00;99.90;;;;;;4975380;28;20204;-32
2023/08/20 07:12:16;;;;;;;10.77;9.63;;;23.90;99.90;;;;;;4988441;28;20185;-31
2023/08/20 07:14:42;;;;;;;10.15;9.13;;;24.10;99.90;;;;;;4971510;28;20196;-31
2023/08/20 07:17:08;;;;;;;10.50;9.40;;;24.30;99.90;;;;;;4971974;28;20188;-31
2023/08/20 07:19:33;;;;;;;11.90;9.45;;;24.30;99.90;;;;;;4954973;28;20217;-32
2023/08/20 07:21:59;;;;;;;10.98;9.50;;;24.50;99.90;;;;;;4944592;29;20201;-31
2023/08/20 07:24:25;;;;;;;9.75;8.75;;;24.50;99.90;;;;;;4944562;29;20189;-31
2023/08/20 07:26:59;;;;;;;10.52;9.43;;;24.50;99.90;;;;;;4952076;29;20181;-31
2023/08/20 07:29:25;;;;;;;11.02;9.70;;;24.60;99.90;;;;;;4952212;29;20217;-31
2023/08/20 07:31:51;;;;;;;9.57;8.75;;;24.70;99.90;;;;;;4968337;28;20271;-31
2023/08/20 07:34:17;;;;;;;9.73;8.77;;;24.70;99.90;;;;;;4953789;28;20185;-31
2023/08/20 07:36:43;;;;;;;9.40;8.25;;;24.90;99.90;;;;;;4941519;29;20177;-31
2023/08/20 07:39:09;;;;;;;9.68;8.68;;;25.10;99.90;;;;;;4965475;28;20215;-30
2023/08/20 07:41:35;;;;;;;12.15;9.52;;;25.30;99.90;;;;;;4944162;29;20190;-31
2023/08/20 07:44:00;;;;;;;11.02;9.82;;;25.40;99.90;;;;;;4947957;29;20177;-32
2023/08/20 07:46:26;;;;;;;10.88;9.38;;;25.40;99.90;;;;;;4943882;29;20219;-31
2023/08/20 07:48:52;;;;;;;11.40;9.07;;;25.40;99.90;;;;;;4944016;29;20240;-31
2023/08/20 07:51:18;;;;;;;10.52;9.32;;;25.40;99.90;;;;;;4943828;29;20191;-31
2023/08/20 07:53:44;;;;;;;11.63;9.25;;;25.50;99.90;;;;;;4943970;29;20212;-31
2023/08/20 07:56:09;;;;;;;12.93;9.38;;;25.70;99.90;;;;;;4938546;29;20181;-31
2023/08/20 07:58:35;;;;;;;11.60;10.15;;;25.80;99.90;;;;;;4943787;29;20201;-32
2023/08/20 08:01:01;;;;;;;10.68;9.57;;;25.90;99.90;;;;;;4943672;29;20240;-32
2023/08/20 08:03:27;;;;;;;10.65;9.65;;;25.90;99.90;;;;;;4951842;28;20219;-32
2023/08/20 08:05:54;;;;;;;10.13;9.23;;;26.00;99.90;;;;;;4954470;28;20169;-32
2023/08/20 08:08:20;;;;;;;10.88;9.77;;;26.30;99.90;;;;;;4945334;29;20276;-31
2023/08/20 08:10:46;;;;;;;11.20;10.15;;;26.30;99.90;;;;;;4949842;29;20277;-31
2023/08/20 08:13:13;;;;;;;10.55;9.32;;;26.50;99.90;;;;;;4943557;29;20204;-31
2023/08/20 08:15:39;;;;;;;10.45;9.40;;;26.60;99.90;;;;;;4959517;28;20184;-31
2023/08/20 08:18:05;;;;;;;11.15;9.55;;;26.70;99.90;;;;;;4960491;28;20216;-31
2023/08/20 08:20:31;;;;;;;11.45;9.27;;;26.60;99.90;;;;;;4979188;28;20216;-31
2023/08/20 08:22:57;;;;;;;12.82;9.52;;;26.60;99.90;;;;;;4965986;28;20184;-32
2023/08/20 08:25:23;;;;;;;10.93;9.93;;;26.60;99.90;;;;;;4955747;28;20187;-32
2023/08/20 08:27:49;;;;;;;11.95;9.63;;;26.60;99.90;;;;;;4984522;28;20211;-31
2023/08/20 08:30:18;;;;;;;10.57;9.55;;;26.60;99.90;;;;;;4970430;28;20204;-32
2023/08/20 08:32:44;;;;;;;10.02;9.10;;;26.60;99.90;;;;;;4970385;28;20177;-31
2023/08/20 08:35:10;;;;;;;10.23;8.95;;;26.60;99.90;;;;;;4967610;28;20185;-32
2023/08/20 08:37:36;;;;;;;10.48;9.57;;;26.70;99.90;;;;;;4953470;28;20177;-32
2023/08/20 08:40:05;;;;;;;10.43;9.13;;;26.80;99.90;;;;;;4946730;28;20192;-31
2023/08/20 08:42:33;;;;;;;10.07;9.07;;;26.90;99.90;;;;;;4979370;28;20267;-32
2023/08/20 08:45:00;;;;;;;10.35;9.40;;;27.10;99.90;;;;;;4969950;28;20192;-31
2023/08/20 08:47:26;;;;;;;10.15;8.95;;;27.10;99.90;;;;;;4961037;28;20193;-31
2023/08/20 08:49:54;;;;;;;10.13;9.10;;;27.20;99.90;;;;;;4970471;28;20287;-31
2023/08/20 08:52:22;;;;;;;10.25;9.32;;;27.40;99.90;;;;;;4954223;28;20191;-31
2023/08/20 08:54:48;;;;;;;9.30;8.50;;;27.60;99.90;;;;;;4970629;28;20231;-31
2023/08/20 08:57:15;;;;;;;11.85;9.23;;;27.70;99.90;;;;;;4961888;28;20285;-31
2023/08/20 08:59:45;;;;;;;10.52;9.52;;;27.90;99.90;;;;;;4977903;28;20200;-31
2023/08/20 09:02:12;;;;;;;9.45;8.60;;;28.00;99.90;;;;;;4958992;28;20196;-31
2023/08/20 09:04:42;;;;;;;9.27;8.50;;;28.00;99.90;;;;;;4946639;28;20181;-31
2023/08/20 09:07:15;;;;;;;10.18;9.13;;;28.20;99.90;;;;;;4962531;28;20208;-32
2023/08/20 09:09:45;;;;;;;9.55;8.70;;;28.40;99.90;;;;;;4938552;28;20679;-31
2023/08/20 09:12:16;;;;;;;9.93;8.90;;;28.50;99.90;;;;;;4958959;28;20189;-31
2023/08/20 09:14:51;;;;;;;11.55;9.18;;;28.70;99.90;;;;;;4951754;28;20184;-32
2023/08/20 09:17:19;;;;;;;9.63;8.73;;;28.80;99.90;;;;;;4967546;28;20179;-31
2023/08/20 09:19:45;;;;;;;10.13;8.75;;;28.90;99.90;;;;;;4962255;28;20208;-32
2023/08/20 09:22:12;;;;;;;9.27;8.38;;;29.00;99.90;;;;;;4954330;28;20189;-32
2023/08/20 09:24:45;;;;;;;9.95;8.98;;;29.10;99.90;;;;;;4970484;28;20312;-31
2023/08/20 09:27:14;;;;;;;10.45;8.63;;;29.30;99.90;;;;;;4966561;28;20192;-32
2023/08/20 09:29:46;;;;;;;11.25;10.00;;;29.50;99.90;;;;;;4924031;28;20205;-32
2023/08/20 09:32:22;;;;;;;9.20;8.40;;;29.40;99.90;;;;;;4961488;28;20192;-32
2023/08/20 09:34:50;;;;;;;12.32;9.00;;;29.40;99.90;;;;;;4950850;28;20192;-32
2023/08/20 09:37:18;;;;;;;10.13;9.13;;;29.50;99.90;;;;;;4957252;28;20184;-32
2023/08/20 09:39:45;;;;;;;11.52;9.80;;;29.40;99.90;;;;;;4965608;28;20200;-32
2023/08/20 09:42:12;;;;;;;9.45;8.48;;;29.50;99.90;;;;;;4973375;28;20188;-33
2023/08/20 09:44:43;;;;;;;12.60;8.25;;;29.40;99.90;;;;;;4973348;28;20185;-31
2023/08/20 09:47:09;;;;;;;9.77;8.88;;;29.30;99.90;;;;;;4965075;28;20193;-32
2023/08/20 09:49:45;;;;;;;10.18;8.68;;;29.30;99.90;;;;;;4940593;28;20247;-31
2023/08/20 09:52:25;;;;;;;10.15;9.15;;;29.30;99.90;;;;;;4973160;28;20172;-32
2023/08/20 09:55:08;;;;;;;11.23;8.57;;;29.40;99.90;;;;;;4958572;28;20169;-32
2023/08/20 09:57:41;;;;;;;10.25;8.75;;;29.50;99.90;;;;;;4974289;28;20188;-32
2023/08/20 10:00:12;;;;;;;9.15;8.20;;;29.70;99.90;;;;;;4969694;28;20216;-32
2023/08/20 10:02:41;;;;;;;9.10;8.25;;;29.80;99.90;;;;;;4973606;28;20180;-32
2023/08/20 10:05:09;;;;;;;11.20;9.13;;;30.00;99.90;;;;;;4973127;28;20192;-31
2023/08/20 10:07:38;;;;;;;9.20;8.40;;;30.10;99.90;;;;;;4964132;28;20189;-32
2023/08/20 10:10:06;;;;;;;8.95;8.00;;;30.20;99.90;;;;;;4956396;28;20216;-32
2023/08/20 10:12:32;;;;;;;10.15;8.73;;;30.20;99.90;;;;;;4974462;28;20263;-32
2023/08/20 10:15:00;;;;;;;9.13;8.32;;;30.20;99.90;;;;;;4967018;28;20192;-32
2023/08/20 10:17:29;;;;;;;10.48;8.60;;;30.30;99.90;;;;;;4972551;28;20177;-32
2023/08/20 10:19:58;;;;;;;10.15;9.00;;;30.40;99.90;;;;;;5014159;23;20238;-30
2023/08/20 10:22:36;;;;;;;10.48;8.60;;;30.60;99.90;;;;;;4976665;28;20208;-30
2023/08/20 10:25:09;;;;;;;9.32;8.52;;;30.50;99.90;;;;;;4975174;28;20176;-29
2023/08/20 10:27:38;;;;;;;9.45;8.65;;;30.40;99.90;;;;;;4979061;28;20191;-31
2023/08/20 10:30:25;;;;;;;10.00;8.32;;;30.50;99.90;;;;;;4997300;28;20209;-31
2023/08/20 10:32:52;;;;;;;9.48;8.43;;;30.60;99.90;;;;;;5014848;28;20174;-32
2023/08/20 10:35:22;;;;;;;10.73;8.07;;;30.70;99.90;;;;;;4998411;28;20225;-32
2023/08/20 10:38:03;;;;;;;9.18;8.38;;;30.90;99.90;;;;;;4994965;28;20175;-31
2023/08/20 10:40:51;;;;;;;9.13;8.10;;;30.90;99.90;;;;;;5003146;28;20182;-31
2023/08/20 10:43:59;;;;;;;9.25;8.50;;;31.00;99.90;;;;;;4994947;28;20191;-32
2023/08/20 10:46:34;;;;;;;11.02;8.80;;;31.20;99.90;;;;;;4979083;28;20230;-31
2023/08/20 10:49:03;;;;;;;9.40;8.45;;;31.30;99.90;;;;;;4998196;28;20218;-32
2023/08/20 10:51:37;;;;;;;10.02;8.27;;;31.30;99.90;;;;;;4996959;28;20642;-31
2023/08/20 10:54:11;;;;;;;9.82;8.88;;;31.30;99.90;;;;;;4978384;28;20274;-32
2023/08/20 10:56:43;;;;;;;8.00;7.30;;;31.40;99.90;;;;;;4996595;28;20190;-31
2023/08/20 10:59:18;;;;;;;8.68;7.78;;;31.70;99.90;;;;;;4999522;28;20222;-32
2023/08/20 11:01:46;;;;;;;8.70;7.80;;;31.90;99.90;;;;;;4978678;28;20187;-33
2023/08/20 11:04:15;;;;;;;8.80;8.00;;;31.80;99.90;;;;;;4994334;28;20187;-32
2023/08/20 11:06:41;;;;;;;11.02;7.93;;;31.80;99.90;;;;;;4993800;28;20219;-32
2023/08/20 11:09:08;;;;;;;7.85;7.05;;;32.00;99.90;;;;;;4989566;28;20236;-32
2023/08/20 11:11:33;;;;;;;8.68;7.47;;;32.00;99.90;;;;;;5005668;28;20266;-32
2023/08/20 11:14:08;;;;;;;8.73;7.90;;;31.80;99.90;;;;;;5014136;28;20186;-32
2023/08/20 11:16:35;;;;;;;8.52;7.82;;;31.90;99.90;;;;;;4997594;28;20186;-31
2023/08/20 11:19:02;;;;;;;8.85;7.20;;;31.80;99.90;;;;;;5013938;28;20222;-31
2023/08/20 11:21:29;;;;;;;9.02;7.20;;;32.00;99.90;;;;;;5013923;28;20213;-32
2023/08/20 11:23:55;;;;;;;9.13;7.40;;;32.30;99.90;;;;;;4989306;28;20183;-32
2023/08/20 11:26:20;;;;;;;10.73;7.40;;;32.50;99.90;;;;;;5013552;28;20238;-32
2023/08/20 11:28:47;;;;;;;7.60;7.00;;;32.70;99.90;;;;;;4993913;28;20207;-32
2023/08/20 11:31:13;;;;;;;8.25;7.45;;;32.90;99.90;;;;;;4997410;28;20277;-32
2023/08/20 11:33:39;;;;;;;10.23;7.70;;;33.10;99.90;;;;;;4997290;28;20190;-33
2023/08/20 11:36:05;;;;;;;9.23;7.40;;;33.10;99.90;;;;;;4997052;28;20272;-32
2023/08/20 11:38:31;;;;;;;8.60;7.80;;;32.90;99.90;;;;;;5013257;28;20194;-32
2023/08/20 11:41:00;;;;;;;8.35;7.55;;;32.80;99.90;;;;;;4994107;28;20270;-32
2023/08/20 11:43:29;;;;;;;8.93;7.65;;;32.90;99.90;;;;;;5013537;28;20201;-32
2023/08/20 11:45:55;;;;;;;7.80;6.97;;;33.10;99.90;;;;;;5013554;28;20198;-32
2023/08/20 11:48:22;;;;;;;7.88;7.07;;;33.30;99.90;;;;;;4997279;28;20261;-32
2023/08/20 11:50:50;;;;;;;13.20;7.38;;;33.40;99.90;;;;;;5013294;28;20241;-32
2023/08/20 11:53:23;;;;;;;8.02;6.60;;;33.20;99.90;;;;;;5012731;28;20182;-32
2023/08/20 11:55:49;;;;;;;9.57;6.85;;;33.10;99.90;;;;;;5012904;28;20178;-32
2023/08/20 11:58:18;;;;;;;7.63;6.93;;;33.10;99.90;;;;;;5013044;28;20194;-32
2023/08/20 12:00:50;;;;;;;7.40;6.53;;;33.40;99.90;;;;;;4996966;28;20186;-32
2023/08/20 12:03:17;;;;;;;9.20;6.70;;;33.70;99.90;;;;;;5013391;28;20187;-32
2023/08/20 12:05:43;;;;;;;7.32;6.63;;;34.00;99.90;;;;;;5012819;28;20190;-32
2023/08/20 12:08:15;;;;;;;7.55;6.75;;;34.10;99.90;;;;;;5013163;28;20229;-32
2023/08/20 12:10:42;;;;;;;9.13;6.78;;;33.90;99.90;;;;;;4996044;28;20289;-33
2023/08/20 12:13:08;;;;;;;11.00;6.97;;;34.00;99.90;;;;;;5013341;28;20183;-32
2023/08/20 12:15:34;;;;;;;10.52;6.95;;;34.00;99.90;;;;;;4996648;28;20179;-32
2023/08/20 12:18:05;;;;;;;8.38;6.90;;;34.20;99.90;;;;;;5012727;28;20198;-32
2023/08/20 12:20:33;;;;;;;7.47;6.60;;;34.40;99.90;;;;;;5030774;28;20205;-33
2023/08/20 12:23:00;;;;;;;6.78;6.18;;;34.70;99.90;;;;;;4996728;28;20186;-33
2023/08/20 12:25:27;;;;;;;6.88;6.18;;;34.80;99.90;;;;;;4995052;28;20186;-33
2023/08/20 12:27:53;;;;;;;7.20;6.45;;;35.10;99.90;;;;;;4988382;28;20186;-33
2023/08/20 12:30:18;;;;;;;7.72;6.93;;;35.20;99.90;;;;;;5013003;28;20272;-32
2023/08/20 12:32:44;;;;;;;8.15;6.97;;;35.30;99.90;;;;;;5004806;28;20191;-33
2023/08/20 12:35:10;;;;;;;7.55;6.70;;;35.20;99.90;;;;;;5013086;28;20183;-33
2023/08/20 12:37:36;;;;;;;7.90;6.97;;;35.20;99.90;;;;;;4996274;28;20187;-33
2023/08/20 12:40:03;;;;;;;8.35;7.05;;;35.30;99.90;;;;;;4996215;28;20198;-33
2023/08/20 12:42:29;;;;;;;7.28;6.28;;;35.40;99.90;;;;;;4996325;28;20222;-34